Silverstone, United Kingdom
Current Conditions -  °F | °C
As of 1:50 PM on Friday 19 Dec 2014 (Local Time) from EGTC Reporting Station
Few Clouds Few Clouds  
Wind Chill: 38°   Ceiling: Unl
Heat Index: 46°   Visibility: 6mi
Dew Point: 37°   Wind: 23mph
Humidity: 71%   Direction: 270°W
Pressure: 29.94"   Gusts: NA
Location:  52.09°N, 1.03°W
Report Text: EGTC 191350Z 27020KT 9999 FEW032 08/03 Q1014
Loading
Personal Weather Stations






























Interactive Weather Map New forecast layout! Learn more

10-Day Weather Forecast

Advertisements
Track Severe Weather on mobile